Date,TemperatureHighF,TemperatureAvgF,TemperatureLowF,DewpointHighF,DewpointAvgF,DewpointLowF,HumidityHigh,HumidityAvg,HumidityLow,PressureMaxIn,PressureMinIn,WindSpeedMaxMPH,WindSpeedAvgMPH,GustSpeedMaxMPH,PrecipitationSumIn
2013-2-1,32.9,28.8,21.5,10.8,6.2,-9.0,49,38,17,30.02,29.69,11,5,19,0.00
2013-2-2,28.8,26.8,21.3,12.4,9.6,-0.4,52,48,37,30.03,29.99,6,3,10,0.00
2013-2-3,27.6,25.9,23.4,22.4,20.1,8.6,86,79,50,30.00,29.68,6,2,10,0.00
2013-2-4,30.7,24.6,19.1,20.4,10.5,-5.7,88,57,20,29.87,29.66,14,4,22,0.00
2013-2-5,32.4,25.4,19.8,22.6,11.3,0.1,84,55,27,29.97,29.88,7,2,10,0.00
2013-2-6,28.3,24.2,21.2,23.5,21.2,18.5,89,88,83,29.95,29.88,3,0,5,0.00
2013-2-7,28.5,25.8,24.4,8.9,1.5,-2.3,50,35,29,30.45,30.40,5,1,8,0.02
2013-2-8,28.4,22.8,17.2,26.5,18.4,9.3,93,83,51,30.43,29.61,13,4,23,0.00
2013-2-9,18.7,17.1,15.6,16.4,14.7,13.2,90,90,90,29.62,29.56,14,10,32,0.00
2013-2-12,39.8,37.5,28.8,28.3,27.2,16.7,69,66,60,29.83,29.69,9,4,17,0.28
2013-2-13,42.9,34.3,24.7,26.7,23.6,9.0,85,66,28,29.82,29.66,6,2,13,0.00
2013-2-14,41.4,32.7,26.5,27.1,22.7,6.1,85,67,24,29.93,29.65,7,2,12,0.00
2013-2-15,41.6,29.4,22.9,33.0,25.5,17.6,91,85,39,29.94,29.89,8,1,14,0.00
2013-2-16,37.9,33.6,28.1,30.1,25.0,16.3,92,71,51,29.91,29.69,6,2,12,0.01
2013-2-17,30.9,22.2,15.8,18.4,10.0,0.8,87,61,39,29.69,29.35,12,6,26,0.00
2013-2-18,27.3,17.7,14.0,13.5,1.2,-20.5,55,49,16,29.91,29.62,10,6,24,0.00
2013-2-19,45.9,41.8,31.4,39.6,32.3,14.6,94,71,46,30.01,29.53,8,4,15,0.20
2013-2-20,39.9,32.5,26.4,38.2,20.7,11.5,94,63,41,29.72,29.49,10,5,20,0.00
2013-2-21,32.2,26.9,24.6,16.0,12.9,9.0,65,55,44,30.13,29.72,10,5,20,0.00
2013-2-22,35.5,25.8,23.1,20.4,17.3,14.6,78,70,50,30.33,30.14,6,2,12,0.00
2013-2-24,31.4,30.4,30.0,30.0,28.9,28.5,94,94,94,29.86,29.84,3,2,6,0.42
2013-2-25,39.7,33.4,29.8,31.7,29.6,16.7,94,86,42,30.18,29.86,4,0,7,0.24
2013-2-26,42.0,33.4,28.1,33.8,29.0,16.6,94,85,35,30.28,30.18,7,1,11,0.07
2013-2-27,40.6,38.0,35.7,38.2,35.9,26.3,94,92,79,29.83,29.52,8,4,22,1.17
2013-2-28,47.2,38.2,33.1,43.8,32.8,12.4,94,82,31,29.59,29.48,5,1,9,0.00